West Junius, New York
Current Conditions -  °F | °C
As of 11:19 AM on Wednesday 22 Oct 2014 (Local Time) from KPEO Reporting Station
Overcast Overcast  
Wind Chill: 41°   Ceiling: 600
Heat Index: 46°   Visibility: 7mi
Dew Point: 43°   Wind: 9mph
Humidity: 89%   Direction: 340°NNW
Pressure: 30.15"   Gusts: NA
Location:  42.9616°N, 77.023°W
Report Text: KPEO 221519Z AUTO 34008KT 300V010 7SM OVC006 08/06 A3015 RMK AO2 T00780061
Loading
Personal Weather Stations






























Interactive Weather Map
Tropical Storm Tracking
New forecast layout! Learn more

10-Day Weather Forecast

Advertisements
Track Severe Weather on mobile